Time;durP1;ratioP1;P1;durP2;ratioP2;P2;SDS_P1;SDS_P2;PMS_P1;PMS_P2;Temp;Humidity;BMP_temperature;BMP_pressure;BME280_temperature;BME280_humidity;BME280_pressure;Samples;Min_cycle;Max_cycle;Signal;HPM_P1;HPM_P2
2022/08/08 00:03:09;;;;;;;11.15;10.05;;;21.10;99.90;;;;;;5051376;28;20044;-57
2022/08/08 00:06:29;;;;;;;14.30;9.68;;;21.10;99.90;;;;;;5051881;28;20052;-57
2022/08/08 00:09:42;;;;;;;10.15;9.15;;;21.00;99.90;;;;;;5051666;28;20052;-61
2022/08/08 00:12:51;;;;;;;10.15;8.52;;;21.00;99.90;;;;;;5050218;28;20158;-58
2022/08/08 00:16:07;;;;;;;12.77;9.75;;;21.00;99.90;;;;;;5050956;28;20036;-58
2022/08/08 00:19:21;;;;;;;11.48;8.32;;;21.10;99.90;;;;;;5051082;28;20036;-60
2022/08/08 00:22:31;;;;;;;10.55;8.02;;;21.20;99.90;;;;;;5050948;28;20040;-57
2022/08/08 00:25:42;;;;;;;14.45;8.02;;;21.20;99.90;;;;;;5050949;28;20040;-56
2022/08/08 00:28:51;;;;;;;9.77;7.60;;;21.20;99.90;;;;;;5051148;28;20048;-58
2022/08/08 00:32:10;;;;;;;12.43;8.23;;;21.20;99.90;;;;;;5050402;28;20036;-57
2022/08/08 00:35:53;;;;;;;13.73;7.75;;;21.20;99.90;;;;;;5050798;28;20407;-58
2022/08/08 00:39:12;;;;;;;10.32;7.68;;;21.30;99.90;;;;;;5049984;28;20040;-57
2022/08/08 00:42:51;;;;;;;10.02;7.38;;;21.30;99.90;;;;;;5050788;28;20040;-58
2022/08/08 00:46:22;;;;;;;10.68;7.80;;;21.30;99.90;;;;;;5050706;28;20407;-56
2022/08/08 00:50:21;;;;;;;10.02;7.90;;;21.30;99.90;;;;;;5050623;28;20048;-58
2022/08/08 00:53:48;;;;;;;11.07;8.10;;;21.10;99.90;;;;;;4991367;28;20536;-60
2022/08/08 00:57:30;;;;;;;17.83;8.30;;;21.00;99.90;;;;;;5049846;28;20043;-55
2022/08/08 01:01:00;;;;;;;8.82;7.68;;;20.90;99.90;;;;;;5049827;28;20040;-58
2022/08/08 01:04:39;;;;;;;10.50;7.68;;;20.70;99.90;;;;;;5049452;28;20029;-59
2022/08/08 01:07:55;;;;;;;14.02;9.00;;;20.70;99.90;;;;;;5049639;28;20048;-57
2022/08/08 01:11:12;;;;;;;14.93;10.50;;;20.60;99.90;;;;;;5049400;28;20055;-59
2022/08/08 01:14:34;;;;;;;11.35;10.15;;;20.50;99.90;;;;;;5049334;28;20522;-58
2022/08/08 01:18:04;;;;;;;11.07;9.82;;;20.40;99.90;;;;;;5049522;28;20047;-56
2022/08/08 01:21:23;;;;;;;12.52;10.55;;;20.40;99.90;;;;;;5050161;28;20040;-59
2022/08/08 01:24:52;;;;;;;12.93;10.45;;;20.40;99.90;;;;;;5049222;28;20040;-56
2022/08/08 01:28:49;;;;;;;18.10;10.32;;;20.40;99.90;;;;;;5050192;28;20062;-56
2022/08/08 01:32:21;;;;;;;12.95;10.82;;;20.40;99.90;;;;;;5039293;28;20055;-59
2022/08/08 01:35:46;;;;;;;14.65;9.95;;;20.50;99.90;;;;;;5049037;28;20056;-56
2022/08/08 01:39:13;;;;;;;13.80;9.98;;;20.50;99.90;;;;;;5049159;28;20514;-56
2022/08/08 01:42:38;;;;;;;14.52;9.95;;;20.40;99.90;;;;;;5037539;28;20044;-58
2022/08/08 01:45:57;;;;;;;16.08;9.52;;;20.50;99.90;;;;;;5049593;28;20044;-58
2022/08/08 01:49:34;;;;;;;10.82;9.45;;;20.40;99.90;;;;;;5049014;28;20044;-56
2022/08/08 01:53:18;;;;;;;11.20;7.72;;;20.40;99.90;;;;;;5048927;28;20048;-55
2022/08/08 01:57:26;;;;;;;9.43;8.35;;;20.50;99.90;;;;;;5000085;28;20048;-60
2022/08/08 02:00:39;;;;;;;11.38;9.50;;;20.40;99.90;;;;;;4968586;28;20520;-57
2022/08/08 02:04:22;;;;;;;11.95;10.77;;;20.40;99.90;;;;;;4970822;28;20054;-60
2022/08/08 02:07:35;;;;;;;11.52;10.25;;;20.30;99.90;;;;;;5048935;28;20040;-56
2022/08/08 02:10:52;;;;;;;13.35;10.30;;;20.30;99.90;;;;;;5048700;28;20052;-59
2022/08/08 02:14:03;;;;;;;11.38;10.20;;;20.30;99.90;;;;;;5048836;28;20044;-56
2022/08/08 02:17:45;;;;;;;11.55;10.43;;;20.40;99.90;;;;;;5049377;28;20514;-59
2022/08/08 02:24:50;;;;;;;;;;;20.40;99.90;;;;;;5048873;28;20048;-60
2022/08/08 02:28:14;;;;;;;17.17;11.13;;;20.40;99.90;;;;;;5048994;28;20287;-56
2022/08/08 02:31:42;;;;;;;12.13;10.57;;;20.30;99.90;;;;;;5048482;28;20055;-61
2022/08/08 02:35:02;;;;;;;15.63;10.55;;;20.40;99.90;;;;;;5048217;28;20052;-57
2022/08/08 02:38:32;;;;;;;13.57;10.60;;;20.40;99.90;;;;;;5052705;28;20404;-57
2022/08/08 02:41:41;;;;;;;20.77;10.55;;;20.50;99.90;;;;;;5052301;28;20056;-58
2022/08/08 02:45:41;;;;;;;15.95;9.32;;;20.50;99.90;;;;;;5051967;28;20044;-57
2022/08/08 02:49:28;;;;;;;12.60;9.82;;;20.60;99.90;;;;;;5052201;28;20256;-58
2022/08/08 02:52:40;;;;;;;10.82;9.30;;;20.60;99.90;;;;;;5052144;28;20052;-60
2022/08/08 02:56:08;;;;;;;14.30;9.70;;;20.60;99.90;;;;;;5052094;28;20043;-56
2022/08/08 02:59:23;;;;;;;12.07;9.02;;;20.50;99.90;;;;;;5051788;28;20040;-59
2022/08/08 03:02:57;;;;;;;13.38;9.18;;;20.60;99.90;;;;;;5051812;28;20056;-57
2022/08/08 03:06:07;;;;;;;10.20;8.98;;;20.50;99.90;;;;;;5052122;28;20523;-58
2022/08/08 03:09:55;;;;;;;13.90;9.57;;;20.40;99.90;;;;;;5051628;28;20373;-58
2022/08/08 03:13:40;;;;;;;14.13;10.45;;;20.30;99.90;;;;;;5051540;28;20201;-57
2022/08/08 03:16:51;;;;;;;13.00;10.23;;;20.20;99.90;;;;;;5051604;28;20044;-56
2022/08/08 03:20:06;;;;;;;11.38;9.50;;;20.10;99.90;;;;;;5051241;28;20527;-56
2022/08/08 03:23:14;;;;;;;13.50;10.60;;;20.10;99.90;;;;;;5051537;28;20044;-56
2022/08/08 03:26:28;;;;;;;14.93;11.00;;;20.20;99.90;;;;;;5051510;28;20048;-58
2022/08/08 03:29:40;;;;;;;11.15;10.05;;;20.20;99.90;;;;;;5051287;28;20044;-60
2022/08/08 03:36:13;;;;;;;13.85;10.27;;;20.10;99.90;;;;;;5052081;28;20052;-58
2022/08/08 03:39:18;;;;;;;11.45;9.90;;;20.10;99.90;;;;;;5052280;28;20047;-60
2022/08/08 03:42:24;;;;;;;11.20;10.10;;;20.00;99.90;;;;;;5051760;28;20056;-56
2022/08/08 03:45:29;;;;;;;12.93;9.85;;;20.00;99.90;;;;;;5051993;28;20048;-57
2022/08/08 03:48:33;;;;;;;14.35;11.73;;;19.90;99.90;;;;;;5051607;28;20048;-55
2022/08/08 03:51:40;;;;;;;13.27;11.43;;;19.80;99.90;;;;;;5051755;28;20044;-61
2022/08/08 03:54:45;;;;;;;15.98;11.50;;;19.80;99.90;;;;;;5051047;28;20036;-60
2022/08/08 03:57:52;;;;;;;18.27;12.10;;;19.80;99.90;;;;;;5051098;28;20044;-57
2022/08/08 04:00:57;;;;;;;15.65;12.05;;;19.70;99.90;;;;;;5050581;28;20044;-58
2022/08/08 04:04:05;;;;;;;21.73;12.27;;;19.70;99.90;;;;;;5050000;28;20060;-56
2022/08/08 04:07:15;;;;;;;13.02;11.25;;;19.70;99.90;;;;;;5050786;28;20031;-58
2022/08/08 04:10:21;;;;;;;14.45;12.00;;;19.60;99.90;;;;;;5051142;28;20535;-59
2022/08/08 04:13:24;;;;;;;15.75;10.88;;;19.60;99.90;;;;;;5051233;28;20048;-58
2022/08/08 04:16:34;;;;;;;13.23;11.13;;;19.70;99.90;;;;;;5050353;28;20044;-58
2022/08/08 04:19:38;;;;;;;15.85;10.82;;;19.80;99.90;;;;;;5050234;28;20040;-58
2022/08/08 04:22:42;;;;;;;19.48;11.40;;;19.80;99.90;;;;;;5050333;28;20048;-56
2022/08/08 04:25:47;;;;;;;15.02;10.80;;;19.80;99.90;;;;;;5050295;28;20048;-58
2022/08/08 04:28:51;;;;;;;14.10;10.50;;;19.80;99.90;;;;;;5050961;28;20415;-56
2022/08/08 04:31:57;;;;;;;15.32;10.43;;;19.80;99.90;;;;;;5049967;28;20055;-56
2022/08/08 04:35:01;;;;;;;12.68;10.93;;;19.90;99.90;;;;;;5049903;28;20391;-56
2022/08/08 04:38:11;;;;;;;11.23;10.13;;;19.90;99.90;;;;;;5050224;28;20526;-58
2022/08/08 04:41:18;;;;;;;14.50;10.85;;;20.00;99.90;;;;;;5050240;28;20072;-57
2022/08/08 04:44:23;;;;;;;14.00;11.15;;;20.00;99.90;;;;;;5049927;28;20108;-57
2022/08/08 04:47:28;;;;;;;11.57;10.07;;;20.10;99.90;;;;;;5050162;28;20047;-59
2022/08/08 04:50:32;;;;;;;11.20;10.02;;;20.20;99.90;;;;;;5049259;28;20052;-57
2022/08/08 04:53:36;;;;;;;17.20;11.15;;;20.40;99.90;;;;;;5049871;28;20032;-57
2022/08/08 04:56:42;;;;;;;10.55;9.45;;;20.50;99.90;;;;;;5049021;28;20048;-56
2022/08/08 04:59:47;;;;;;;13.73;9.80;;;20.70;99.90;;;;;;5048591;28;20043;-59
2022/08/08 05:02:51;;;;;;;13.73;9.20;;;20.90;99.90;;;;;;5049758;28;20052;-56
2022/08/08 05:05:57;;;;;;;17.35;9.63;;;21.10;99.90;;;;;;5048845;28;20044;-57
2022/08/08 05:09:02;;;;;;;12.48;9.13;;;21.40;99.90;;;;;;5049781;28;20044;-59
2022/08/08 05:12:07;;;;;;;13.15;8.10;;;23.30;99.90;;;;;;5048539;28;20040;-56
2022/08/08 05:15:11;;;;;;;13.02;6.68;;;25.30;99.90;;;;;;5048503;28;20047;-59
2022/08/08 05:18:15;;;;;;;13.00;6.82;;;25.40;99.90;;;;;;5049794;28;20403;-57
2022/08/08 05:21:19;;;;;;;7.75;6.85;;;25.70;99.90;;;;;;5049702;28;20514;-57
2022/08/08 05:24:25;;;;;;;11.75;7.53;;;25.30;99.90;;;;;;5048692;28;20049;-59
2022/08/08 05:27:30;;;;;;;11.57;6.45;;;24.90;99.90;;;;;;5048741;28;20044;-59
2022/08/08 05:30:37;;;;;;;11.10;7.35;;;24.90;99.90;;;;;;5049185;28;20040;-58
2022/08/08 05:33:41;;;;;;;8.73;7.00;;;24.80;99.90;;;;;;5048774;28;20396;-60
2022/08/08 05:36:47;;;;;;;6.88;6.05;;;24.80;99.90;;;;;;5048317;28;20029;-56
2022/08/08 05:39:55;;;;;;;7.78;6.25;;;24.60;99.90;;;;;;5048522;28;20040;-58
2022/08/08 05:43:07;;;;;;;10.35;6.88;;;25.70;99.90;;;;;;5048666;28;20337;-57
2022/08/08 05:46:12;;;;;;;11.20;7.45;;;25.60;99.90;;;;;;5048184;28;20047;-60
2022/08/08 05:49:18;;;;;;;9.00;7.63;;;25.10;99.90;;;;;;5048191;28;20047;-57
2022/08/08 05:52:23;;;;;;;10.45;6.82;;;25.50;99.90;;;;;;5049148;28;20057;-56
2022/08/08 05:55:28;;;;;;;8.20;6.35;;;27.80;99.90;;;;;;5048563;28;20411;-56
2022/08/08 05:58:33;;;;;;;9.80;5.85;;;30.00;99.90;;;;;;5049486;28;20041;-56
2022/08/08 06:01:40;;;;;;;7.03;5.35;;;31.70;99.90;;;;;;5048417;28;20037;-59
2022/08/08 06:04:52;;;;;;;7.47;4.88;;;31.40;99.90;;;;;;5048132;28;20033;-55
2022/08/08 06:07:57;;;;;;;12.10;5.10;;;31.80;99.90;;;;;;5049591;28;20052;-57
2022/08/08 06:11:02;;;;;;;8.20;5.43;;;32.60;99.90;;;;;;5049229;28;20123;-59
2022/08/08 06:14:08;;;;;;;6.70;4.15;;;33.80;99.90;;;;;;5052646;28;20409;-58
2022/08/08 06:17:12;;;;;;;6.35;4.65;;;34.60;97.80;;;;;;5052470;28;20044;-58
2022/08/08 06:20:31;;;;;;;5.20;3.58;;;34.50;96.70;;;;;;5052455;28;20535;-58
2022/08/08 06:23:36;;;;;;;5.15;4.40;;;34.50;96.60;;;;;;5052108;28;20062;-58
2022/08/08 06:26:50;;;;;;;10.10;4.00;;;34.80;96.00;;;;;;5052763;28;20033;-56
2022/08/08 06:30:08;;;;;;;6.32;3.70;;;34.80;95.10;;;;;;5051645;28;20055;-60
2022/08/08 06:33:25;;;;;;;4.22;3.83;;;34.70;95.10;;;;;;5051516;28;20404;-56
2022/08/08 06:36:40;;;;;;;4.68;4.15;;;34.30;94.80;;;;;;5051148;28;20037;-56
2022/08/08 06:39:49;;;;;;;8.57;3.30;;;34.30;94.50;;;;;;5051438;28;20056;-59
2022/08/08 06:43:04;;;;;;;4.28;3.25;;;34.40;94.00;;;;;;5051609;28;20060;-59
2022/08/08 06:46:13;;;;;;;5.67;3.57;;;34.70;93.90;;;;;;5051153;28;20041;-58
2022/08/08 06:49:20;;;;;;;4.65;3.35;;;34.80;93.30;;;;;;5051322;28;20041;-58
2022/08/08 06:52:25;;;;;;;3.67;2.75;;;35.20;93.00;;;;;;5050998;28;20037;-59
2022/08/08 06:55:29;;;;;;;3.88;3.25;;;35.70;92.50;;;;;;5050806;28;20044;-58
2022/08/08 06:58:34;;;;;;;3.63;3.20;;;36.00;91.30;;;;;;5051471;28;20051;-59
2022/08/08 07:02:01;;;;;;;3.60;2.88;;;36.00;91.30;;;;;;5050852;28;20047;-58
2022/08/08 07:05:12;;;;;;;3.85;2.75;;;36.10;90.60;;;;;;5051022;28;20044;-60
2022/08/08 07:08:20;;;;;;;4.57;2.95;;;36.30;91.30;;;;;;5050625;28;20064;-59
2022/08/08 07:11:29;;;;;;;4.07;2.53;;;36.60;89.90;;;;;;5050795;28;20048;-60
2022/08/08 07:14:43;;;;;;;4.95;2.80;;;37.20;89.10;;;;;;5050300;28;20033;-56
2022/08/08 07:17:49;;;;;;;4.82;2.60;;;37.70;87.60;;;;;;5050556;28;20400;-57
2022/08/08 07:21:01;;;;;;;4.32;2.50;;;38.00;86.10;;;;;;5050528;28;20060;-56
2022/08/08 07:24:13;;;;;;;3.78;2.15;;;38.40;85.30;;;;;;5051388;28;20041;-58
2022/08/08 07:27:25;;;;;;;4.57;2.30;;;38.80;82.00;;;;;;5031154;28;20556;-61
2022/08/08 07:30:30;;;;;;;3.97;2.30;;;39.10;80.60;;;;;;5045027;28;20041;-59
2022/08/08 07:33:35;;;;;;;6.47;2.05;;;39.50;81.60;;;;;;5051236;28;20045;-61
2022/08/08 07:36:42;;;;;;;2.40;2.05;;;39.80;79.00;;;;;;5030682;28;20034;-60
2022/08/08 07:39:46;;;;;;;2.80;1.88;;;39.90;78.00;;;;;;5037349;28;20131;-59
2022/08/08 07:42:53;;;;;;;3.15;2.08;;;39.70;77.90;;;;;;5050480;28;20036;-61
2022/08/08 07:45:58;;;;;;;4.78;2.10;;;40.00;76.30;;;;;;5051204;28;20044;-60
2022/08/08 07:49:02;;;;;;;5.90;2.70;;;39.70;76.70;;;;;;5049682;28;20520;-61
2022/08/08 07:52:11;;;;;;;5.72;2.00;;;39.00;75.70;;;;;;5048782;28;20056;-58
2022/08/08 07:55:20;;;;;;;2.63;2.30;;;39.60;76.70;;;;;;5049271;28;20051;-59
2022/08/08 07:58:50;;;;;;;6.53;2.00;;;35.90;78.60;;;;;;5049207;28;20479;-60
2022/08/08 08:02:00;;;;;;;4.15;2.13;;;37.50;79.90;;;;;;5059441;28;20044;-61
2022/08/08 08:05:09;;;;;;;;;;;38.70;76.80;;;;;;5048170;28;20045;-57
2022/08/08 08:08:17;;;;;;;2.90;2.20;;;38.40;77.50;;;;;;5072361;22;19927;-53
2022/08/08 08:11:25;;;;;;;3.20;2.03;;;36.10;78.30;;;;;;5055297;28;20514;-56
2022/08/08 08:14:52;;;;;;;2.50;2.00;;;36.70;77.50;;;;;;5038324;28;20050;-55
2022/08/08 08:17:59;;;;;;;2.10;1.90;;;38.60;77.00;;;;;;5038063;28;20040;-55
2022/08/08 08:21:07;;;;;;;4.10;2.17;;;39.30;74.50;;;;;;5042384;28;20051;-55
2022/08/08 08:24:12;;;;;;;4.28;2.08;;;38.60;74.00;;;;;;5068785;28;20040;-55
2022/08/08 08:27:18;;;;;;;3.95;2.15;;;38.50;75.70;;;;;;5057047;28;20557;-55
2022/08/08 08:30:26;;;;;;;6.68;2.30;;;39.30;76.10;;;;;;5070021;28;20402;-54
2022/08/08 08:33:31;;;;;;;4.78;2.75;;;38.00;79.90;;;;;;5057591;28;20032;-55
2022/08/08 08:36:37;;;;;;;6.47;2.95;;;38.20;79.90;;;;;;5057392;28;20032;-54
2022/08/08 08:39:41;;;;;;;3.75;2.40;;;39.50;76.90;;;;;;5058065;28;20033;-55
2022/08/08 08:42:47;;;;;;;2.90;2.58;;;39.80;75.70;;;;;;5056791;28;20043;-53
2022/08/08 08:45:56;;;;;;;4.72;2.60;;;39.90;76.40;;;;;;5038636;28;20515;-53
2022/08/08 08:49:01;;;;;;;5.10;2.60;;;39.30;76.00;;;;;;5062780;28;20059;-56
2022/08/08 08:52:06;;;;;;;5.72;2.83;;;39.40;75.70;;;;;;5057067;28;20048;-55
2022/08/08 08:55:16;;;;;;;3.72;2.42;;;40.00;74.30;;;;;;5056286;28;20035;-55
2022/08/08 08:58:31;;;;;;;;;;;41.40;75.00;;;;;;5056948;28;20040;-54
2022/08/08 09:01:43;;;;;;;5.93;2.60;;;42.10;73.90;;;;;;5038165;28;19920;-55
2022/08/08 09:05:01;;;;;;;3.17;2.22;;;41.60;72.00;;;;;;5037463;28;20052;-56
2022/08/08 09:08:07;;;;;;;5.40;2.42;;;41.40;71.40;;;;;;5047979;28;20056;-55
2022/08/08 09:11:13;;;;;;;3.35;2.58;;;39.40;71.60;;;;;;5057419;28;20036;-55
2022/08/08 09:14:24;;;;;;;3.00;2.20;;;40.90;74.00;;;;;;5049456;28;20048;-55
2022/08/08 09:17:30;;;;;;;2.50;2.30;;;40.80;70.80;;;;;;5042457;28;20502;-56
2022/08/08 09:20:36;;;;;;;4.05;2.40;;;40.60;69.20;;;;;;5069590;28;20346;-55
2022/08/08 09:23:41;;;;;;;5.07;2.10;;;39.60;71.50;;;;;;5056968;28;20134;-55
2022/08/08 09:27:05;;;;;;;6.10;2.00;;;41.20;69.20;;;;;;5055072;28;20048;-56
2022/08/08 09:30:13;;;;;;;2.13;1.92;;;42.80;68.00;;;;;;5056184;28;20059;-55
2022/08/08 09:33:21;;;;;;;3.55;1.88;;;44.40;66.40;;;;;;5055875;28;20514;-54
2022/08/08 09:36:28;;;;;;;7.80;2.20;;;45.00;67.00;;;;;;5069587;28;20036;-51
2022/08/08 09:39:59;;;;;;;4.57;2.15;;;43.90;64.80;;;;;;5056204;28;20550;-55
2022/08/08 09:43:19;;;;;;;2.92;2.20;;;40.40;66.90;;;;;;5056364;28;20047;-55
2022/08/08 09:46:23;;;;;;;3.78;2.40;;;38.00;71.50;;;;;;5071420;28;20036;-55
2022/08/08 09:49:27;;;;;;;3.45;2.40;;;37.40;73.90;;;;;;5053154;28;20036;-56
2022/08/08 09:52:33;;;;;;;3.53;2.60;;;37.50;74.70;;;;;;5072573;28;20503;-55
2022/08/08 09:55:38;;;;;;;3.40;2.30;;;37.50;73.10;;;;;;5066774;28;20191;-54
2022/08/08 09:58:52;;;;;;;8.00;3.13;;;37.80;71.60;;;;;;5071250;28;20031;-56
2022/08/08 10:01:59;;;;;;;4.20;2.60;;;37.90;72.60;;;;;;5071888;28;20033;-55
2022/08/08 10:05:17;;;;;;;5.88;2.55;;;37.30;70.00;;;;;;5057078;28;20048;-55
2022/08/08 10:08:21;;;;;;;3.60;2.72;;;36.90;70.30;;;;;;5039957;28;20441;-56
2022/08/08 10:11:25;;;;;;;6.35;2.83;;;36.60;70.80;;;;;;5073626;28;20051;-56
2022/08/08 10:14:38;;;;;;;3.30;2.40;;;36.60;70.80;;;;;;5060406;28;20032;-54
2022/08/08 10:17:48;;;;;;;3.75;2.58;;;36.50;70.10;;;;;;5072822;28;20044;-54
2022/08/08 10:21:00;;;;;;;5.47;2.65;;;36.30;71.00;;;;;;5060604;28;20055;-56
2022/08/08 10:24:07;;;;;;;4.57;2.53;;;36.00;71.40;;;;;;5059024;28;20034;-55
2022/08/08 10:27:12;;;;;;;2.70;2.50;;;35.60;70.90;;;;;;5070595;28;20048;-55
2022/08/08 10:30:17;;;;;;;3.60;2.80;;;35.10;72.40;;;;;;5059706;28;20052;-55
2022/08/08 10:33:30;;;;;;;7.05;3.45;;;34.70;73.90;;;;;;5072218;28;20055;-54
2022/08/08 10:36:37;;;;;;;5.97;3.10;;;33.90;74.90;;;;;;5071961;28;20058;-54
2022/08/08 10:39:43;;;;;;;3.10;2.80;;;32.90;77.20;;;;;;5071890;28;20450;-55
2022/08/08 10:42:53;;;;;;;6.15;3.22;;;32.30;76.60;;;;;;5057920;28;20048;-55
2022/08/08 10:45:57;;;;;;;4.38;3.00;;;32.00;77.90;;;;;;5071032;28;20040;-54
2022/08/08 10:49:01;;;;;;;3.78;3.38;;;31.50;79.60;;;;;;5071207;28;20055;-52
2022/08/08 10:52:06;;;;;;;5.75;2.97;;;31.20;80.00;;;;;;5071129;28;20584;-55
2022/08/08 10:55:13;;;;;;;3.13;2.83;;;31.00;80.80;;;;;;5063383;28;20044;-56
2022/08/08 10:58:27;;;;;;;3.60;3.10;;;30.70;83.00;;;;;;5070771;28;20029;-56
2022/08/08 11:01:31;;;;;;;3.85;3.30;;;30.40;83.30;;;;;;5068444;28;20043;-55
2022/08/08 11:04:45;;;;;;;7.38;3.35;;;30.10;87.70;;;;;;5071442;28;20522;-55
2022/08/08 11:07:52;;;;;;;3.53;2.88;;;29.90;90.00;;;;;;5059434;28;20040;-55
2022/08/08 11:11:05;;;;;;;4.43;2.75;;;29.80;89.60;;;;;;5070355;28;20029;-55
2022/08/08 11:14:12;;;;;;;3.42;2.25;;;29.70;84.40;;;;;;5070711;28;20045;-55
2022/08/08 11:26:44;;;;;;;4.57;2.80;;;28.70;86.70;;;;;;5067584;28;20059;-55
2022/08/08 11:29:49;;;;;;;4.43;2.85;;;27.90;89.30;;;;;;5071088;28;20043;-54
2022/08/08 11:33:00;;;;;;;3.25;2.38;;;27.50;90.10;;;;;;5071064;28;20035;-54
2022/08/08 11:36:05;;;;;;;5.88;2.50;;;27.50;90.30;;;;;;5071298;28;20040;-53
2022/08/08 11:39:11;;;;;;;2.78;2.30;;;27.50;88.30;;;;;;5071398;28;20045;-54
2022/08/08 11:42:17;;;;;;;3.35;2.30;;;27.70;86.70;;;;;;5069631;28;20055;-55
2022/08/08 11:45:22;;;;;;;3.17;2.33;;;28.00;85.80;;;;;;5071073;28;20032;-52
2022/08/08 11:48:26;;;;;;;4.72;2.40;;;28.40;85.70;;;;;;5071966;28;20044;-55
2022/08/08 11:51:31;;;;;;;2.38;2.10;;;27.70;85.50;;;;;;5071026;28;20032;-55
2022/08/08 11:54:35;;;;;;;6.22;2.30;;;28.10;83.30;;;;;;5071217;28;20059;-55
2022/08/08 11:57:39;;;;;;;3.05;2.50;;;28.40;84.20;;;;;;5070671;28;20036;-55
2022/08/08 12:00:52;;;;;;;2.17;1.98;;;28.70;84.70;;;;;;5070566;28;20044;-55
2022/08/08 12:03:56;;;;;;;3.47;2.05;;;29.10;83.10;;;;;;5061381;28;20053;-56
2022/08/08 12:07:05;;;;;;;6.22;2.35;;;29.50;83.00;;;;;;5068948;28;20044;-55
2022/08/08 12:10:13;;;;;;;3.38;2.42;;;29.70;86.50;;;;;;5065148;28;20048;-54
2022/08/08 12:13:23;;;;;;;3.00;2.13;;;29.80;85.60;;;;;;5068080;28;20056;-52
2022/08/08 12:16:28;;;;;;;5.18;2.08;;;29.60;84.70;;;;;;5069748;28;20039;-54
2022/08/08 12:19:31;;;;;;;4.72;1.80;;;29.30;84.90;;;;;;5070287;28;20045;-55
2022/08/08 12:22:47;;;;;;;2.60;2.20;;;29.50;83.90;;;;;;5069160;28;20051;-56
2022/08/08 12:25:52;;;;;;;3.80;1.65;;;29.90;84.10;;;;;;5070329;28;20514;-52
2022/08/08 12:28:58;;;;;;;2.85;1.70;;;30.50;82.80;;;;;;5069665;28;20043;-52
2022/08/08 12:32:02;;;;;;;3.10;1.70;;;31.10;79.90;;;;;;5069607;28;20514;-52
2022/08/08 12:35:08;;;;;;;2.05;1.70;;;31.40;74.00;;;;;;5065927;28;20052;-55
2022/08/08 12:38:12;;;;;;;3.83;1.65;;;31.80;73.60;;;;;;5070171;28;20029;-52
2022/08/08 12:41:21;;;;;;;3.42;1.92;;;32.80;71.50;;;;;;5069052;28;20040;-51
2022/08/08 12:44:28;;;;;;;2.00;1.40;;;33.60;70.90;;;;;;5068632;28;20044;-54
2022/08/08 12:47:32;;;;;;;2.10;1.90;;;34.70;70.10;;;;;;5062513;28;20043;-55
2022/08/08 12:50:43;;;;;;;2.38;1.70;;;35.50;68.30;;;;;;5059696;28;20044;-56
2022/08/08 12:53:59;;;;;;;4.53;1.48;;;36.10;66.70;;;;;;5049562;28;20044;-56
2022/08/08 12:57:23;;;;;;;2.38;1.63;;;36.70;69.00;;;;;;5064225;28;20395;-56
2022/08/08 13:00:28;;;;;;;3.22;2.00;;;36.40;66.80;;;;;;5056118;28;20094;-55
2022/08/08 13:03:33;;;;;;;3.70;1.85;;;34.90;71.10;;;;;;5056338;28;20052;-56
2022/08/08 13:06:37;;;;;;;3.83;1.83;;;34.30;71.50;;;;;;5068906;28;20528;-54
2022/08/08 13:09:45;;;;;;;3.85;1.73;;;34.40;67.50;;;;;;5069285;28;20047;-54
2022/08/08 13:12:51;;;;;;;1.67;1.50;;;33.60;69.40;;;;;;5068313;28;20036;-56
2022/08/08 13:16:16;;;;;;;4.88;1.92;;;33.80;70.00;;;;;;5068354;28;20033;-56
2022/08/08 13:19:23;;;;;;;2.95;2.00;;;33.30;71.70;;;;;;5051918;28;20521;-55
2022/08/08 13:22:27;;;;;;;5.72;3.15;;;33.00;71.80;;;;;;5057963;28;20373;-54
2022/08/08 13:25:33;;;;;;;8.90;2.17;;;34.10;71.10;;;;;;5052260;28;20054;-55
2022/08/08 13:28:37;;;;;;;2.33;1.70;;;34.00;70.80;;;;;;5068448;28;20051;-56
2022/08/08 13:31:50;;;;;;;4.53;2.35;;;33.40;67.20;;;;;;5048950;28;20470;-55
2022/08/08 13:34:57;;;;;;;7.70;2.63;;;33.90;66.00;;;;;;5029794;28;20041;-56
2022/08/08 13:38:05;;;;;;;1.95;1.60;;;33.70;67.30;;;;;;5039926;28;20048;-54
2022/08/08 13:41:09;;;;;;;2.75;1.73;;;33.90;69.90;;;;;;5043200;28;20044;-55
2022/08/08 13:44:14;;;;;;;2.60;1.80;;;33.60;68.30;;;;;;5043775;28;20051;-55
2022/08/08 13:47:18;;;;;;;3.60;2.00;;;33.20;70.30;;;;;;5048404;28;20320;-56
2022/08/08 13:50:22;;;;;;;2.65;1.60;;;33.30;70.80;;;;;;5048034;28;20364;-56
2022/08/08 13:53:28;;;;;;;1.67;1.50;;;33.80;70.10;;;;;;5037915;28;20041;-52
2022/08/08 13:56:36;;;;;;;2.03;1.50;;;33.60;71.10;;;;;;5049269;28;20049;-55
2022/08/08 13:59:46;;;;;;;3.10;1.77;;;33.60;69.60;;;;;;5024814;28;20036;-56
2022/08/08 14:03:00;;;;;;;2.30;1.63;;;34.10;67.40;;;;;;5048426;28;20041;-55
2022/08/08 14:06:09;;;;;;;3.03;1.95;;;34.90;67.90;;;;;;5048210;28;20404;-55
2022/08/08 14:09:14;;;;;;;2.35;1.70;;;35.50;67.00;;;;;;5048670;28;20052;-55
2022/08/08 14:12:18;;;;;;;2.10;1.40;;;34.10;66.10;;;;;;5057626;22;20058;-60
2022/08/08 14:15:31;;;;;;;2.20;1.60;;;34.60;67.00;;;;;;5027650;28;20045;-61
2022/08/08 14:18:35;;;;;;;1.50;1.40;;;35.60;67.70;;;;;;5028284;28;20037;-58
2022/08/08 14:21:40;;;;;;;2.13;1.52;;;36.20;65.30;;;;;;5027755;28;20514;-59
2022/08/08 14:24:58;;;;;;;1.42;1.33;;;34.90;65.60;;;;;;5011313;28;20045;-61
2022/08/08 14:28:08;;;;;;;2.50;1.10;;;35.30;66.70;;;;;;5001982;28;20045;-60
2022/08/08 14:31:12;;;;;;;3.22;1.35;;;35.40;64.00;;;;;;5021391;28;20044;-61
2022/08/08 14:34:16;;;;;;;1.35;1.25;;;35.80;64.90;;;;;;5032687;28;20488;-60
2022/08/08 14:37:21;;;;;;;1.40;1.15;;;36.00;63.90;;;;;;5031530;28;20048;-62
2022/08/08 14:40:27;;;;;;;4.18;1.52;;;35.90;62.90;;;;;;5006945;28;20037;-61
2022/08/08 14:43:51;;;;;;;4.90;1.27;;;35.30;62.90;;;;;;5012501;28;20041;-61
2022/08/08 14:46:58;;;;;;;1.20;1.10;;;35.10;62.80;;;;;;5020106;28;20042;-61
2022/08/08 14:50:10;;;;;;;3.00;1.40;;;35.20;63.60;;;;;;5012738;28;20413;-61
2022/08/08 14:53:14;;;;;;;2.13;1.38;;;35.80;63.40;;;;;;5012108;28;20038;-61
2022/08/08 14:56:18;;;;;;;1.50;0.82;;;36.20;63.20;;;;;;5012614;28;20052;-59
2022/08/08 14:59:22;;;;;;;1.10;0.90;;;36.50;62.40;;;;;;5012384;28;20412;-62
2022/08/08 15:02:28;;;;;;;1.45;1.13;;;36.30;61.50;;;;;;5012095;28;20386;-61
2022/08/08 15:05:33;;;;;;;1.90;1.15;;;35.30;62.50;;;;;;5012272;28;20038;-61
2022/08/08 15:08:37;;;;;;;1.27;1.17;;;34.50;61.80;;;;;;5012436;28;20040;-61
2022/08/08 15:11:41;;;;;;;1.33;1.20;;;34.80;62.20;;;;;;5012456;28;20056;-61
2022/08/08 15:14:45;;;;;;;1.73;1.10;;;35.40;62.30;;;;;;5012381;28;20060;-61
2022/08/08 15:17:50;;;;;;;1.30;1.00;;;35.80;62.20;;;;;;5012638;28;20038;-61
2022/08/08 15:20:54;;;;;;;3.20;1.30;;;35.60;61.80;;;;;;5012258;28;20037;-61
2022/08/08 15:23:59;;;;;;;2.67;1.17;;;33.70;62.00;;;;;;5012211;28;20060;-60
2022/08/08 15:27:03;;;;;;;1.50;0.98;;;33.30;63.50;;;;;;5012252;28;20049;-60
2022/08/08 15:30:08;;;;;;;3.55;2.03;;;32.80;62.00;;;;;;5012401;28;20041;-61
2022/08/08 15:33:12;;;;;;;4.07;2.30;;;32.50;71.00;;;;;;5011631;28;20046;-59
2022/08/08 15:36:16;;;;;;;5.22;2.00;;;31.80;74.50;;;;;;5011945;28;20034;-61
2022/08/08 15:39:20;;;;;;;3.13;2.40;;;31.90;73.60;;;;;;5011257;28;20664;-59
2022/08/08 15:42:24;;;;;;;3.20;2.22;;;32.00;73.80;;;;;;5012217;28;20062;-58
2022/08/08 15:45:29;;;;;;;4.75;2.22;;;31.20;75.40;;;;;;5010764;28;20049;-60
2022/08/08 15:48:34;;;;;;;6.80;2.28;;;31.30;75.40;;;;;;5012141;28;20420;-60
2022/08/08 15:51:38;;;;;;;2.72;2.20;;;31.10;76.80;;;;;;5010484;28;20033;-61
2022/08/08 15:54:44;;;;;;;3.10;2.50;;;31.00;75.70;;;;;;5011488;28;20057;-60
2022/08/08 15:57:49;;;;;;;2.92;2.30;;;30.90;76.90;;;;;;5011938;28;20048;-60
2022/08/08 16:00:54;;;;;;;4.40;2.03;;;30.60;77.10;;;;;;5011638;28;20052;-60
2022/08/08 16:03:58;;;;;;;3.80;2.00;;;30.50;78.10;;;;;;5011520;28;20405;-60
2022/08/08 16:07:03;;;;;;;3.20;2.17;;;30.30;77.10;;;;;;5011927;28;20044;-60
2022/08/08 16:10:07;;;;;;;2.42;2.22;;;30.00;77.30;;;;;;5011598;28;20053;-60
2022/08/08 16:13:12;;;;;;;2.33;1.80;;;30.10;75.00;;;;;;5011233;28;20045;-60
2022/08/08 16:16:16;;;;;;;2.50;2.00;;;30.20;75.40;;;;;;5011544;28;20061;-60
2022/08/08 16:19:22;;;;;;;5.55;1.90;;;30.10;75.30;;;;;;5011155;28;20033;-60
2022/08/08 16:22:26;;;;;;;3.35;1.70;;;30.20;73.70;;;;;;5010844;28;20037;-60
2022/08/08 16:25:30;;;;;;;4.53;1.88;;;30.20;72.60;;;;;;5010185;28;20037;-60
2022/08/08 16:28:35;;;;;;;3.08;2.13;;;30.20;73.70;;;;;;5011069;28;20405;-61
2022/08/08 16:31:44;;;;;;;5.22;2.30;;;30.20;73.70;;;;;;5010786;28;20041;-61
2022/08/08 16:34:48;;;;;;;3.20;2.67;;;29.80;74.50;;;;;;5010134;28;20041;-61
2022/08/08 16:37:52;;;;;;;6.45;2.10;;;29.80;75.00;;;;;;5010031;28;20060;-58
2022/08/08 16:40:56;;;;;;;4.03;2.20;;;29.80;76.00;;;;;;5010676;28;20038;-60
2022/08/08 16:44:00;;;;;;;13.07;3.25;;;29.60;76.10;;;;;;5010221;28;20037;-60
2022/08/08 16:47:34;;;;;;;2.53;2.30;;;29.50;77.30;;;;;;5010980;28;20052;-60